Flight Track Log - Related Links

Times and Time Zones

All times are in EDT time to prevent confusion due to time zone crossing. See the N600TR flight status page for this flight to view local times or setup timezone preferences in your user account.

Time Position Orientation Groundspeed Altitude Reporting Facility
EDT Latitude Longitude Course Direction KTS MPH feet Rate Location/Type
Fri 08:42:06 AM 33.6667 -84.5000 328° Northwest 234 269 3,500  Level Atlanta TRACON
Fri 08:43:06 AM 33.7000 -84.5833 296° West 272 313 6,600 2,165 Climbing Atlanta TRACON
Fri 08:44:00 AM 34.0322 -84.5212 349° North  Level FlightAware Approximate
Fri 08:45:00 AM 34.1256 -84.5454 347° North  Level FlightAware Approximate
Fri 08:45:20 AM 33.8828 -84.6042 355° North 299 344 10,500  Level Atlanta Center
Fri 08:46:00 AM 34.2206 -84.5823 328° Northwest  Level FlightAware Approximate
Fri 08:46:20 AM 33.9808 -84.6150 355° North 329 379 12,700  Level Atlanta Center
Fri 08:47:00 AM 34.3058 -84.6474 328° Northwest  Level FlightAware Approximate
Fri 08:47:20 AM 34.0808 -84.6231 356° North 348 400 14,900  Level Atlanta Center
Fri 08:48:20 AM 34.1872 -84.6289 357° North 361 415 16,900 1,850 Climbing Atlanta Center
Fri 08:49:20 AM 34.2808 -84.6825 335° Northwest 368 423 18,600 1,650 Climbing Atlanta Center
Fri 08:50:20 AM 34.3703 -84.7661 322° Northwest 368 423 20,200 1,500 Climbing Atlanta Center
Fri 08:51:20 AM 34.4639 -84.8325 330° Northwest 387 445 21,600 1,350 Climbing Atlanta Center
Fri 08:52:20 AM 34.5572 -84.8836 336° Northwest 393 452 22,900 1,250 Climbing Atlanta Center
Fri 08:53:20 AM 34.6675 -84.9378 338° Northwest 404 465 24,100 1,250 Climbing Atlanta Center
Fri 08:54:20 AM 34.7756 -85.0072 332° Northwest 419 482 25,400 950 Climbing Atlanta Center
Fri 08:55:20 AM 34.8728 -85.0969 323° Northwest 431 496 26,000 300 Climbing Atlanta Center
Fri 08:56:20 AM 34.9722 -85.1919 322° Northwest 444 511 26,000 -419 Level Atlanta Center
Fri 08:58:12 AM 35.1042 -85.4508 302° West 446 513 24,800 -698 Descending Memphis Center
Fri 08:59:12 AM 35.1739 -85.5764 304° West 451 519 24,000 -400 Descending Memphis Center
Fri 09:00:12 AM 35.2533 -85.6939 310° West 451 519 24,000 -650 Level Memphis Center
Fri 09:01:12 AM 35.3547 -85.7850 324° Northwest 441 507 22,700 -2,650 Descending Memphis Center
Fri 09:02:12 AM 35.4533 -85.8586 329° Northwest 433 498 18,700 -4,050 Descending Memphis Center
Fri 09:03:12 AM 35.5497 -85.9272 330° Northwest 419 482 14,600 -3,450 Descending Memphis Center
Fri 09:04:12 AM 35.6381 -86.0042 325° Northwest 398 458 11,800 -1,800 Descending Memphis Center
Fri 09:05:12 AM 35.7053 -86.0825 317° Northwest 364 419 11,000 -850 Descending Memphis Center
Fri 09:06:12 AM 35.7481 -86.1697 301° West 312 359 10,100 -1,400 Descending Memphis Center
Fri 09:07:12 AM 35.7822 -86.2550 296° West 283 326 8,200 -1,700 Descending Memphis Center
Fri 09:08:12 AM 35.8161 -86.3378 297° West 273 314 6,700 -1,150 Descending Memphis Center
Fri 09:09:12 AM 35.8542 -86.4206 300° West 273 314 5,900 -900 Descending Memphis Center
Fri 09:10:12 AM 35.8878 -86.4958 299° West 268 308 4,900 -1,150 Descending Memphis Center
Fri 09:11:12 AM 35.9150 -86.5636 296° West 241 277 3,600 -950 Descending Memphis Center
Fri 09:12:12 AM 35.9436 -86.6189 303° West 224 258 3,000 -600 Descending Memphis Center
Fri 09:13:12 AM 35.9869 -86.6656 319° Northwest 207 238 2,400 -400 Descending Memphis Center
Fri 09:14:12 AM 36.0275 -86.7022 324° Northwest 188 216 2,200 -350 Descending Memphis Center
Fri 09:15:12 AM 36.0672 -86.7056 356° North 136 157 1,700 -650 Descending Memphis Center
Fri 09:16:12 AM 36.1064 -86.6911 17° North 141 162 900 -550 Descending Memphis Center
Fri 09:17:12 AM 36.1458 -86.6814 11° North 141 162 600 -300 Descending Memphis Center

Login

Don't have an account? Register now (free) for customized features, flight alerts, and more!